Time;durP1;ratioP1;P1;durP2;ratioP2;P2;SDS_P1;SDS_P2;PMS_P1;PMS_P2;Temp;Humidity;BMP_temperature;BMP_pressure;BME280_temperature;BME280_humidity;BME280_pressure;Samples;Min_cycle;Max_cycle;Signal;HPM_P1;HPM_P2
2023/01/22 00:02:16;;;;;;;31.13;17.92;;;;;;;1.64;100.00;98066.03;5033186;28;20050;-92
2023/01/22 00:04:42;;;;;;;29.27;17.80;;;;;;;1.54;100.00;98038.13;5032403;28;20033;-90
2023/01/22 00:07:10;;;;;;;30.00;17.75;;;;;;;1.55;100.00;98058.22;5034496;28;20048;-93
2023/01/22 00:09:36;;;;;;;40.10;22.30;;;;;;;1.57;100.00;98066.94;5033996;28;20041;-92
2023/01/22 00:12:02;;;;;;;32.67;18.92;;;;;;;1.37;100.00;98044.28;5034365;28;20033;-92
2023/01/22 00:14:27;;;;;;;28.90;18.38;;;;;;;1.51;100.00;98069.59;5035501;28;20487;-91
2023/01/22 00:16:53;;;;;;;24.98;16.02;;;;;;;1.56;100.00;98080.91;5034886;28;20056;-92
2023/01/22 00:19:19;;;;;;;31.65;17.65;;;;;;;1.53;100.00;98084.41;5035437;28;20434;-92
2023/01/22 00:21:45;;;;;;;25.08;16.30;;;;;;;1.50;100.00;98083.56;5035455;28;20025;-93
2023/01/22 00:24:12;;;;;;;25.75;16.48;;;;;;;1.35;100.00;98060.88;5035972;28;20064;-92
2023/01/22 00:26:39;;;;;;;29.60;17.20;;;;;;;1.49;100.00;98089.66;5035428;28;20402;-93
2023/01/22 00:29:05;;;;;;;30.90;18.63;;;;;;;1.35;100.00;98074.84;5035920;28;20417;-91
2023/01/22 00:31:34;;;;;;;30.25;19.38;;;;;;;1.32;100.00;98081.84;5034428;28;20047;-93
2023/01/22 00:34:00;;;;;;;38.92;22.73;;;;;;;1.23;100.00;98072.25;5033405;28;20037;-91
2023/01/22 00:36:26;;;;;;;31.75;19.27;;;;;;;1.26;100.00;98085.34;5036585;28;20060;-92
2023/01/22 00:38:52;;;;;;;31.88;19.50;;;;;;;1.36;100.00;98094.06;5035913;28;20034;-95
2023/01/22 00:41:19;;;;;;;27.65;17.90;;;;;;;1.33;100.00;98076.59;5035088;28;20080;-94
2023/01/22 00:43:46;;;;;;;29.15;16.27;;;;;;;1.35;100.00;98074.84;5035394;28;20383;-94
2023/01/22 00:46:14;;;;;;;27.50;16.35;;;;;;;1.25;100.00;98070.50;5034675;28;20041;-92
2023/01/22 00:48:40;;;;;;;38.80;20.63;;;;;;;1.31;100.00;98086.19;5034890;28;20124;-92
2023/01/22 00:51:07;;;;;;;55.58;30.15;;;;;;;1.28;100.00;98080.97;5036301;28;20049;-93
2023/01/22 00:53:33;;;;;;;37.72;21.98;;;;;;;1.39;100.00;98102.78;5035794;28;20498;-93
2023/01/22 00:56:01;;;;;;;29.45;17.95;;;;;;;1.41;100.00;98108.00;5035515;28;20044;-93
2023/01/22 00:58:29;;;;;;;34.70;19.92;;;;;;;1.29;100.00;98082.72;5035087;28;20117;-94
2023/01/22 01:00:55;;;;;;;29.20;16.73;;;;;;;1.42;100.00;98101.91;5033032;28;20049;-93
2023/01/22 01:06:21;;;;;;;27.08;15.27;;;;;;;1.48;100.00;98107.16;5134548;27;20364;-92
2023/01/22 01:08:48;;;;;;;25.73;14.05;;;;;;;1.50;100.00;98104.53;5119201;27;20435;-93
2023/01/22 01:11:15;;;;;;;23.33;13.80;;;;;;;1.48;100.00;98103.66;5116977;28;20377;-90
2023/01/22 01:13:42;;;;;;;20.80;12.57;;;;;;;1.56;100.00;98112.34;5115553;28;20100;-92
2023/01/22 01:16:12;;;;;;;20.85;12.90;;;;;;;1.46;100.00;98103.66;5120430;28;20039;-92
2023/01/22 01:18:38;;;;;;;20.77;12.30;;;;;;;1.48;100.00;98112.38;5119450;28;20062;-94
2023/01/22 01:21:06;;;;;;;23.35;12.98;;;;;;;1.41;100.00;98089.66;5121717;28;20063;-93
2023/01/22 01:23:34;;;;;;;21.65;12.55;;;;;;;1.60;100.00;98114.97;5120710;27;20045;-92
2023/01/22 01:26:03;;;;;;;20.63;11.98;;;;;;;1.53;100.00;98112.38;5118177;28;20047;-94
2023/01/22 01:28:29;;;;;;;20.65;12.02;;;;;;;1.42;100.00;98105.41;5119040;28;20039;-94
2023/01/22 01:30:54;;;;;;;19.90;12.32;;;;;;;1.52;100.00;98119.38;5117956;28;20100;-94
2023/01/22 01:33:21;;;;;;;21.83;13.68;;;;;;;1.45;100.00;98117.59;5120369;27;20449;-93
2023/01/22 01:35:47;;;;;;;22.20;13.52;;;;;;;1.40;100.00;98111.50;5119718;28;20039;-93
2023/01/22 01:38:12;;;;;;;20.45;12.70;;;;;;;1.40;100.00;98115.00;5118467;28;20416;-91
2023/01/22 01:40:43;;;;;;;21.35;12.55;;;;;;;1.40;100.00;98111.50;5116730;28;20032;-93
2023/01/22 01:43:13;;;;;;;23.48;13.38;;;;;;;1.53;100.00;98134.19;5117394;28;20042;-92
2023/01/22 01:45:39;;;;;;;21.00;12.85;;;;;;;1.38;100.00;98116.75;5117557;28;20043;-92
2023/01/22 01:48:16;;;;;;;19.65;11.73;;;;;;;1.41;100.00;98116.75;5120935;28;20453;-90
2023/01/22 01:50:46;;;;;;;18.73;11.63;;;;;;;1.43;100.00;98124.59;5120468;28;20043;-92
2023/01/22 01:53:12;;;;;;;19.38;12.05;;;;;;;1.42;100.00;98134.22;5119136;27;20058;-91
2023/01/22 01:55:39;;;;;;;21.40;12.10;;;;;;;1.40;100.00;98129.84;5120936;28;20036;-93
2023/01/22 01:58:10;;;;;;;21.30;12.82;;;;;;;1.40;100.00;98128.09;5121429;27;20065;-93
2023/01/22 02:00:38;;;;;;;21.23;12.80;;;;;;;1.31;100.00;98116.78;5119154;28;20039;-94
2023/01/22 02:03:04;;;;;;;24.30;13.65;;;;;;;1.49;100.00;98140.31;5122997;28;20040;-93
2023/01/22 02:05:35;;;;;;;23.30;13.27;;;;;;;1.39;100.00;98118.50;5124475;28;20056;-92
2023/01/22 02:08:01;;;;;;;20.70;12.13;;;;;;;1.53;100.00;98131.59;5117218;28;20071;-93
2023/01/22 02:10:27;;;;;;;18.33;11.77;;;;;;;1.67;100.00;98141.16;5123963;28;20043;-94
2023/01/22 02:12:56;;;;;;;22.98;11.82;;;;;;;1.50;100.00;98121.13;5120444;28;20480;-93
2023/01/22 02:15:24;;;;;;;19.45;12.07;;;;;;;1.53;100.00;98135.97;5118447;28;20036;-92
2023/01/22 02:17:50;;;;;;;19.52;11.25;;;;;;;1.38;100.00;98110.63;5109268;28;20053;-92
2023/01/22 02:20:16;;;;;;;18.38;11.07;;;;;;;1.37;100.00;98122.88;5107540;28;20043;-92
2023/01/22 02:22:43;;;;;;;21.00;11.77;;;;;;;1.50;100.00;98138.59;5108718;28;20059;-92
2023/01/22 02:25:09;;;;;;;20.63;10.80;;;;;;;1.36;100.00;98118.50;5109209;28;20046;-91
2023/01/22 02:27:35;;;;;;;20.90;10.90;;;;;;;1.47;100.00;98141.19;5103949;28;20039;-93
2023/01/22 02:30:01;;;;;;;17.15;10.35;;;;;;;1.33;100.00;98121.13;5108476;28;20392;-91
2023/01/22 02:32:27;;;;;;;17.05;10.07;;;;;;;1.50;100.00;98139.47;5108146;28;20044;-93
2023/01/22 02:34:53;;;;;;;19.63;10.68;;;;;;;1.50;100.00;98142.09;5108918;28;20044;-93
2023/01/22 02:37:20;;;;;;;16.38;10.60;;;;;;;1.32;100.00;98108.88;5107789;28;20040;-94
2023/01/22 02:39:47;;;;;;;16.15;9.90;;;;;;;1.30;100.00;98102.81;5109127;28;20044;-92
2023/01/22 02:42:13;;;;;;;16.25;10.52;;;;;;;1.35;100.00;98118.53;5108294;27;20044;-92
2023/01/22 02:44:39;;;;;;;19.38;11.98;;;;;;;1.29;100.00;98103.66;5109577;28;20042;-93
2023/01/22 02:47:05;;;;;;;18.67;11.07;;;;;;;1.33;100.00;98109.78;5104619;28;20122;-94
2023/01/22 02:49:32;;;;;;;22.08;11.98;;;;;;;1.31;100.00;98104.53;5111243;28;20403;-92
2023/01/22 02:51:57;;;;;;;21.58;11.73;;;;;;;1.47;100.00;98134.19;5111461;28;20492;-92
2023/01/22 02:54:23;;;;;;;18.17;11.20;;;;;;;1.34;100.00;98115.00;5110012;28;20055;-93
2023/01/22 02:56:51;;;;;;;18.23;10.75;;;;;;;1.29;100.00;98098.44;5105853;28;20046;-93
2023/01/22 02:59:17;;;;;;;19.05;11.70;;;;;;;1.27;100.00;98096.69;5110700;28;20531;-92
2023/01/22 03:01:42;;;;;;;18.02;11.32;;;;;;;1.19;100.00;98099.31;5107538;28;20039;-91
2023/01/22 03:04:09;;;;;;;20.15;12.27;;;;;;;1.16;100.00;98104.56;5109874;28;20040;-93
2023/01/22 03:06:37;;;;;;;19.75;12.07;;;;;;;1.09;100.00;98094.97;5106296;28;20059;-90
2023/01/22 03:09:03;;;;;;;19.38;10.70;;;;;;;1.13;100.00;98104.53;5108294;28;20043;-92
2023/01/22 03:11:31;;;;;;;17.73;10.70;;;;;;;1.29;100.00;98124.63;5112908;28;20066;-92
2023/01/22 03:22:58;;;;;;;24.40;14.52;;;;;;;1.32;100.00;98122.00;5130530;27;20389;-93
2023/01/22 03:25:24;;;;;;;30.38;14.43;;;;;;;1.34;100.00;98133.34;5096625;28;20064;-91
2023/01/22 03:30:49;;;;;;;26.67;15.18;;;;;;;1.19;100.00;98112.41;5120612;27;20396;-92
2023/01/22 03:33:15;;;;;;;26.55;13.63;;;;;;;1.23;100.00;98122.00;5119595;27;20134;-93
2023/01/22 03:35:41;;;;;;;27.13;14.38;;;;;;;1.25;100.00;98125.50;5119604;28;20046;-91
2023/01/22 03:38:07;;;;;;;24.08;13.35;;;;;;;1.17;100.00;98111.53;5122034;28;20043;-91
2023/01/22 03:40:33;;;;;;;24.20;13.95;;;;;;;1.24;100.00;98126.38;5118993;28;20547;-92
2023/01/22 03:42:59;;;;;;;21.13;12.55;;;;;;;1.16;100.00;98102.78;5124769;28;20060;-91
2023/01/22 03:45:25;;;;;;;22.35;13.20;;;;;;;1.27;100.00;98126.38;5123346;28;20184;-92
2023/01/22 03:47:54;;;;;;;26.15;13.13;;;;;;;1.10;100.00;98107.16;5115835;28;20086;-94
2023/01/22 03:50:20;;;;;;;22.15;12.52;;;;;;;1.18;100.00;98122.00;5125202;28;20032;-94
2023/01/22 03:52:45;;;;;;;22.10;12.23;;;;;;;1.30;100.00;98142.09;5124329;28;20488;-93
2023/01/22 03:55:11;;;;;;;24.50;12.02;;;;;;;1.29;100.00;98136.84;5124152;27;20036;-93
2023/01/22 03:57:37;;;;;;;22.98;12.52;;;;;;;1.25;100.00;98125.50;5119602;28;20080;-92
2023/01/22 04:00:06;;;;;;;21.95;12.05;;;;;;;1.22;100.00;98123.75;5118516;28;20040;-92
2023/01/22 04:02:32;;;;;;;22.35;12.55;;;;;;;1.22;100.00;98117.66;5119703;28;20052;-95
2023/01/22 04:04:59;;;;;;;24.92;13.75;;;;;;;1.31;100.00;98120.25;5119063;28;20043;-92
2023/01/22 04:07:25;;;;;;;27.73;14.63;;;;;;;1.43;100.00;98142.94;5121436;28;20395;-92
2023/01/22 04:09:52;;;;;;;26.85;14.20;;;;;;;1.34;100.00;98140.34;5121326;28;20046;-92
2023/01/22 04:12:17;;;;;;;23.80;12.70;;;;;;;1.43;100.00;98154.31;5121014;28;20027;-91
2023/01/22 04:14:43;;;;;;;24.02;13.18;;;;;;;1.43;100.00;98143.84;5121218;28;20036;-91
2023/01/22 04:17:10;;;;;;;23.67;12.55;;;;;;;1.34;100.00;98125.47;5113346;28;20040;-88
2023/01/22 04:19:36;;;;;;;22.60;12.70;;;;;;;1.37;100.00;98128.13;5122629;28;20040;-91
2023/01/22 04:22:03;;;;;;;22.13;13.02;;;;;;;1.29;100.00;98123.75;5119869;28;20050;-91
2023/01/22 04:24:29;;;;;;;26.50;13.00;;;;;;;1.29;100.00;98132.47;5118546;27;20791;-93
2023/01/22 04:26:55;;;;;;;24.90;13.10;;;;;;;1.15;100.00;98122.03;5115919;28;20047;-92
2023/01/22 04:29:21;;;;;;;24.05;12.15;;;;;;;1.21;100.00;98144.69;5117337;28;20047;-90
2023/01/22 04:31:47;;;;;;;24.58;12.82;;;;;;;1.23;100.00;98148.19;5121180;28;20060;-91
2023/01/22 04:34:13;;;;;;;24.58;12.38;;;;;;;1.07;100.00;98122.88;5122520;28;20035;-92
2023/01/22 04:36:38;;;;;;;25.45;12.75;;;;;;;1.24;100.00;98163.06;5119939;28;20118;-92
2023/01/22 04:39:06;;;;;;;22.73;12.45;;;;;;;1.18;100.00;98148.19;5121989;28;20088;-92
2023/01/22 04:41:32;;;;;;;24.90;13.52;;;;;;;1.20;100.00;98156.06;5109388;28;20066;-91
2023/01/22 04:43:58;;;;;;;25.10;14.15;;;;;;;1.13;100.00;98144.72;5106842;28;20032;-92
2023/01/22 04:46:23;;;;;;;26.80;14.32;;;;;;;1.07;100.00;98147.31;5105516;28;20058;-92
2023/01/22 04:48:49;;;;;;;27.48;14.85;;;;;;;1.15;100.00;98157.78;5111880;28;20094;-91
2023/01/22 04:51:15;;;;;;;25.65;13.80;;;;;;;1.08;100.00;98140.34;5109081;28;20039;-93
2023/01/22 04:53:41;;;;;;;24.08;12.77;;;;;;;1.03;100.00;98132.47;5108942;28;20064;-93
2023/01/22 04:56:09;;;;;;;22.20;12.98;;;;;;;1.17;100.00;98156.03;5103764;28;20036;-92
2023/01/22 04:58:35;;;;;;;24.98;13.65;;;;;;;1.06;100.00;98156.03;5103707;28;20044;-90
2023/01/22 05:01:01;;;;;;;25.38;13.40;;;;;;;1.04;100.00;98155.16;5105976;28;20135;-91
2023/01/22 05:03:26;;;;;;;24.63;12.65;;;;;;;1.02;100.00;98157.78;5112271;28;20497;-92
2023/01/22 05:05:52;;;;;;;22.88;12.35;;;;;;;0.99;100.00;98143.81;5107112;28;20051;-92
2023/01/22 05:08:18;;;;;;;22.70;11.98;;;;;;;1.18;100.00;98182.22;5103457;28;20040;-91
2023/01/22 05:10:44;;;;;;;24.30;12.73;;;;;;;1.12;100.00;98168.25;5103345;28;20048;-92
2023/01/22 05:13:11;;;;;;;24.13;12.70;;;;;;;1.02;100.00;98162.16;5102704;28;20154;-91
2023/01/22 05:15:37;;;;;;;20.10;11.45;;;;;;;1.21;100.00;98189.22;5104503;28;20044;-92
2023/01/22 05:18:03;;;;;;;25.60;13.18;;;;;;;1.23;100.00;98187.47;5104060;28;20093;-91
2023/01/22 05:20:29;;;;;;;29.98;14.52;;;;;;;1.16;100.00;98173.50;5106330;28;20046;-91
2023/01/22 05:22:55;;;;;;;37.05;17.48;;;;;;;1.34;100.00;98197.97;5106526;28;20043;-91
2023/01/22 05:25:21;;;;;;;24.48;13.77;;;;;;;1.26;100.00;98174.41;5102877;28;20036;-92
2023/01/22 05:27:47;;;;;;;23.00;12.52;;;;;;;1.36;100.00;98193.59;5105271;28;20409;-91
2023/01/22 05:30:15;;;;;;;25.35;13.07;;;;;;;1.23;100.00;98170.00;5106123;28;20449;-90
2023/01/22 05:32:40;;;;;;;26.25;14.27;;;;;;;1.35;100.00;98190.09;5104953;28;20107;-92
2023/01/22 05:35:07;;;;;;;23.25;12.80;;;;;;;1.19;100.00;98170.00;5105514;28;20067;-91
2023/01/22 05:37:33;;;;;;;20.50;11.48;;;;;;;1.23;100.00;98177.00;5104155;28;20135;-90
2023/01/22 05:39:59;;;;;;;18.27;10.20;;;;;;;1.13;100.00;98181.38;5104677;28;20105;-92
2023/01/22 05:42:25;;;;;;;20.10;10.05;;;;;;;1.22;100.00;98204.06;5106875;28;20143;-93
2023/01/22 05:44:51;;;;;;;18.20;9.60;;;;;;;1.17;100.00;98188.38;5105867;28;20135;-91
2023/01/22 05:47:18;;;;;;;16.85;9.52;;;;;;;1.23;100.00;98214.53;5104355;28;20469;-91
2023/01/22 05:49:44;;;;;;;18.27;9.57;;;;;;;1.07;100.00;98199.69;5105835;28;20155;-91
2023/01/22 05:52:10;;;;;;;15.98;8.82;;;;;;;1.04;100.00;98204.91;5102521;28;20118;-91
2023/01/22 05:54:37;;;;;;;18.95;10.18;;;;;;;1.06;100.00;98212.75;5106766;28;20058;-92
2023/01/22 05:57:03;;;;;;;17.13;9.80;;;;;;;1.14;100.00;98227.63;5106187;28;20028;-93
2023/01/22 05:59:29;;;;;;;24.75;12.18;;;;;;;1.36;100.00;98219.78;5105090;28;20111;-91
2023/01/22 06:01:55;;;;;;;24.83;12.73;;;;;;;1.38;100.00;98229.41;5103436;28;20059;-92
2023/01/22 06:04:23;;;;;;;25.42;13.50;;;;;;;1.17;100.00;98231.97;5103449;28;20044;-92
2023/01/22 06:06:48;;;;;;;22.35;11.32;;;;;;;0.90;100.00;98222.34;5106787;28;20044;-91
2023/01/22 06:09:14;;;;;;;22.35;11.85;;;;;;;0.96;100.00;98243.31;5100547;28;20047;-92
2023/01/22 06:11:40;;;;;;;24.33;12.80;;;;;;;0.89;100.00;98233.66;5105726;28;20093;-90
2023/01/22 06:14:06;;;;;;;23.83;12.75;;;;;;;0.79;100.00;98230.16;5105115;28;20079;-91
2023/01/22 06:16:32;;;;;;;24.70;12.38;;;;;;;0.76;100.00;98236.25;5100833;28;20044;-91
2023/01/22 06:18:58;;;;;;;23.38;11.68;;;;;;;0.61;100.00;98230.97;5109412;28;20039;-92
2023/01/22 06:21:26;;;;;;;24.92;11.95;;;;;;;0.73;100.00;98256.31;5105021;28;20413;-93
2023/01/22 06:23:51;;;;;;;16.27;9.55;;;;;;;0.72;100.00;98268.53;5103216;28;20108;-93
2023/01/22 06:26:17;;;;;;;20.77;10.57;;;;;;;0.60;100.00;98243.16;5105993;28;20497;-91
2023/01/22 06:28:43;;;;;;;20.23;11.07;;;;;;;0.86;100.00;98258.09;5105041;28;20390;-91
2023/01/22 06:31:09;;;;;;;23.38;11.65;;;;;;;1.05;100.00;98276.50;5098656;28;20024;-91
2023/01/22 06:33:36;;;;;;;25.98;12.93;;;;;;;0.88;100.00;98258.97;5104089;28;20416;-91
2023/01/22 06:36:03;;;;;;;31.30;13.07;;;;;;;1.00;100.00;98282.59;5103595;28;20044;-91
2023/01/22 06:38:31;;;;;;;33.70;14.00;;;;;;;0.87;100.00;98270.34;5100991;28;20093;-91
2023/01/22 06:40:58;;;;;;;34.05;15.98;;;;;;;0.81;100.00;98284.25;5108055;28;20040;-92
2023/01/22 06:43:25;;;;;;;33.90;13.68;;;;;;;0.87;100.00;98304.34;5104944;28;20442;-91
2023/01/22 06:45:52;;;;;;;26.98;12.32;;;;;;;0.84;100.00;98288.63;5111515;28;20036;-92
2023/01/22 06:48:18;;;;;;;24.40;12.90;;;;;;;0.88;100.00;98274.69;5103658;28;20044;-91
2023/01/22 06:50:44;;;;;;;31.00;14.32;;;;;;;0.97;100.00;98308.72;5104527;28;20040;-90
2023/01/22 06:53:11;;;;;;;35.15;14.48;;;;;;;0.86;100.00;98299.09;5102912;28;20088;-93
2023/01/22 06:55:38;;;;;;;36.65;15.45;;;;;;;0.88;100.00;98293.00;5103788;28;20060;-91
2023/01/22 06:58:04;;;;;;;25.77;13.18;;;;;;;0.94;100.00;98297.41;5101459;28;20040;-92
2023/01/22 07:00:30;;;;;;;28.77;13.55;;;;;;;0.98;100.00;98300.03;5100605;28;20579;-91
2023/01/22 07:02:56;;;;;;;26.70;13.00;;;;;;;1.08;100.00;98308.78;5103080;28;20063;-91
2023/01/22 07:05:22;;;;;;;24.48;11.50;;;;;;;1.09;100.00;98300.06;5101137;28;20442;-93
2023/01/22 07:07:51;;;;;;;25.60;12.30;;;;;;;1.29;100.00;98322.81;5099826;28;20095;-93
2023/01/22 07:10:17;;;;;;;26.98;15.10;;;;;;;1.10;100.00;98300.94;5102367;28;20481;-92
2023/01/22 07:12:44;;;;;;;27.33;13.43;;;;;;;1.16;100.00;98293.97;5102886;28;20036;-91
2023/01/22 07:15:12;;;;;;;31.10;13.40;;;;;;;1.16;100.00;98311.44;5102693;28;20051;-92
2023/01/22 07:17:38;;;;;;;25.30;13.65;;;;;;;1.16;100.00;98307.06;5104459;28;20040;-92
2023/01/22 07:20:04;;;;;;;30.35;14.02;;;;;;;1.20;100.00;98310.56;5099430;28;20065;-91
2023/01/22 07:22:31;;;;;;;26.50;12.85;;;;;;;1.36;100.00;98296.63;5100330;28;20055;-90
2023/01/22 07:24:57;;;;;;;27.88;13.20;;;;;;;1.50;100.00;98296.66;5100526;28;20403;-91
2023/01/22 07:27:23;;;;;;;23.92;12.75;;;;;;;1.79;100.00;98311.53;5100797;28;20040;-90
2023/01/22 07:29:50;;;;;;;25.65;12.70;;;;;;;1.94;100.00;98327.28;5104107;28;20035;-92
2023/01/22 07:32:16;;;;;;;23.92;11.73;;;;;;;1.80;100.00;98311.56;5106397;28;20040;-92
2023/01/22 07:34:42;;;;;;;22.90;11.77;;;;;;;1.78;100.00;98321.16;5102779;28;20081;-92
2023/01/22 07:37:08;;;;;;;23.67;12.20;;;;;;;1.85;100.00;98316.78;5106072;28;20032;-92
2023/01/22 07:39:34;;;;;;;20.13;11.70;;;;;;;1.67;100.00;98311.53;5105427;28;20396;-93
2023/01/22 07:42:00;;;;;;;21.15;11.18;;;;;;;1.61;100.00;98325.50;5102856;28;20032;-91
2023/01/22 07:44:26;;;;;;;21.48;11.40;;;;;;;1.61;100.00;98338.63;5103504;28;20059;-91
2023/01/22 07:46:54;;;;;;;20.23;10.80;;;;;;;1.73;100.00;98324.63;5109461;28;20036;-93
2023/01/22 07:49:19;;;;;;;24.52;12.15;;;;;;;1.79;100.00;98330.75;5102841;28;20044;-91
2023/01/22 07:51:45;;;;;;;20.15;10.10;;;;;;;1.88;100.00;98323.78;5107862;28;20104;-92
2023/01/22 07:54:11;;;;;;;25.73;13.48;;;;;;;1.75;100.00;98305.41;5108732;28;20040;-90
2023/01/22 07:56:37;;;;;;;28.83;11.73;;;;;;;1.86;100.00;98334.25;5101904;28;20090;-92
2023/01/22 07:59:04;;;;;;;22.70;11.55;;;;;;;1.96;100.00;98337.78;5104766;28;20040;-91
2023/01/22 08:01:30;;;;;;;22.70;12.43;;;;;;;1.89;100.00;98343.88;5103248;28;20047;-90
2023/01/22 08:03:58;;;;;;;20.73;10.43;;;;;;;1.99;100.00;98354.38;5102696;28;20072;-92
2023/01/22 08:06:24;;;;;;;25.02;11.93;;;;;;;1.80;100.00;98339.50;5100383;28;20040;-93
2023/01/22 08:08:50;;;;;;;23.60;10.48;;;;;;;1.83;100.00;98358.72;5103823;28;20527;-92
2023/01/22 08:11:16;;;;;;;24.33;13.05;;;;;;;1.61;100.00;98359.59;5105681;28;20068;-91
2023/01/22 08:13:42;;;;;;;23.02;11.93;;;;;;;1.70;100.00;98366.59;5106309;28;20040;-92
2023/01/22 08:16:08;;;;;;;24.35;12.75;;;;;;;1.69;100.00;98376.16;5102292;28;20139;-91
2023/01/22 08:18:34;;;;;;;28.40;12.73;;;;;;;1.60;100.00;98398.00;5109059;28;20067;-92
2023/01/22 08:21:01;;;;;;;29.17;13.80;;;;;;;1.58;100.00;98385.75;5108608;28;20043;-92
2023/01/22 08:23:27;;;;;;;26.83;13.77;;;;;;;1.75;100.00;98384.06;5101890;28;20074;-91
2023/01/22 08:25:57;;;;;;;33.47;14.43;;;;;;;1.88;100.00;98384.09;5101417;28;20502;-90
2023/01/22 08:28:23;;;;;;;28.20;12.93;;;;;;;2.01;100.00;98391.97;5108429;28;20043;-93
2023/01/22 08:30:49;;;;;;;30.73;13.75;;;;;;;1.98;100.00;98381.47;5101145;28;20069;-91
2023/01/22 08:33:14;;;;;;;27.92;14.20;;;;;;;2.18;100.00;98383.22;5103277;28;20043;-93
2023/01/22 08:35:40;;;;;;;30.50;13.45;;;;;;;2.20;100.00;98368.38;5105791;28;20044;-92
2023/01/22 08:38:08;;;;;;;29.48;14.00;;;;;;;2.59;100.00;98401.56;5105200;28;20404;-93
2023/01/22 08:40:33;;;;;;;21.38;11.45;;;;;;;2.44;100.00;98393.72;5103996;28;20389;-92
2023/01/22 08:42:59;;;;;;;24.35;11.13;;;;;;;2.50;100.00;98413.84;5108584;28;20044;-91
2023/01/22 08:45:25;;;;;;;26.60;12.57;;;;;;;2.44;100.00;98388.47;5102816;28;20492;-92
2023/01/22 08:47:58;;;;;;;18.08;9.73;;;;;;;2.53;100.00;98403.34;5112372;28;20066;-92
2023/01/22 08:50:27;;;;;;;18.98;9.85;;;;;;;2.53;100.00;98388.47;5107371;28;20501;-93
2023/01/22 08:52:55;;;;;;;21.58;11.32;;;;;;;2.79;100.00;98395.44;5107300;28;20500;-92
2023/01/22 08:55:22;;;;;;;19.80;10.50;;;;;;;2.96;100.00;98401.50;5098280;28;20036;-93
2023/01/22 08:57:51;;;;;;;21.15;10.93;;;;;;;3.18;100.00;98394.44;5099812;28;20043;-91
2023/01/22 09:00:17;;;;;;;;;;;;;;;3.44;100.00;98402.22;5097399;28;20074;-91
2023/01/22 09:02:43;;;;;;;24.85;11.82;;;;;;;3.53;100.00;98401.28;5103841;28;19920;-91
2023/01/22 09:05:09;;;;;;;26.65;13.23;;;;;;;3.59;100.00;98410.91;5097476;28;20032;-92
2023/01/22 09:07:35;;;;;;;23.30;12.10;;;;;;;3.63;100.00;98397.75;5099502;28;20104;-90
2023/01/22 09:10:01;;;;;;;27.58;11.30;;;;;;;3.66;100.00;98395.09;5097132;28;20428;-92
2023/01/22 09:12:28;;;;;;;20.10;10.52;;;;;;;3.74;100.00;98399.44;5102056;28;20089;-94
2023/01/22 09:14:54;;;;;;;19.65;10.60;;;;;;;3.67;100.00;98398.63;5100594;28;20826;-91
2023/01/22 09:17:20;;;;;;;22.38;12.40;;;;;;;3.58;100.00;98409.16;5095088;28;20044;-93
2023/01/22 09:19:46;;;;;;;18.75;10.13;;;;;;;3.79;100.00;98439.72;5100023;28;20131;-92
2023/01/22 09:22:12;;;;;;;16.40;9.57;;;;;;;3.54;100.00;98418.84;5100007;28;20040;-92
2023/01/22 09:24:41;;;;;;;17.50;8.88;;;;;;;3.48;100.00;98435.50;5102502;28;20050;-91
2023/01/22 09:27:08;;;;;;;14.68;9.13;;;;;;;3.60;100.00;98431.06;5097513;28;20385;-91
2023/01/22 09:29:35;;;;;;;29.05;12.38;;;;;;;3.77;100.00;98425.72;5100706;28;20047;-92
2023/01/22 09:32:01;;;;;;;18.05;10.77;;;;;;;3.61;100.00;98427.56;5099788;28;20020;-92
2023/01/22 09:34:27;;;;;;;16.10;9.20;;;;;;;3.67;100.00;98428.41;5101455;28;20147;-91
2023/01/22 09:36:53;;;;;;;16.30;9.05;;;;;;;3.64;100.00;98398.59;5096333;28;20047;-91
2023/01/22 09:39:19;;;;;;;16.98;9.45;;;;;;;3.83;100.00;98404.66;5105856;28;20039;-92
2023/01/22 09:41:48;;;;;;;15.77;8.85;;;;;;;4.11;100.00;98413.22;5096524;28;20051;-93
2023/01/22 09:44:20;;;;;;;15.98;8.98;;;;;;;4.08;99.83;98426.44;5102293;28;20036;-91
2023/01/22 09:46:53;;;;;;;16.27;9.15;;;;;;;3.83;99.42;98416.03;5097409;28;20040;-91
2023/01/22 09:49:23;;;;;;;16.67;9.35;;;;;;;3.92;100.00;98423.00;5103352;28;20040;-93
2023/01/22 09:51:55;;;;;;;14.98;8.65;;;;;;;4.17;100.00;98405.31;5098165;28;20040;-92
2023/01/22 09:54:22;;;;;;;16.00;8.15;;;;;;;4.45;100.00;98413.00;5096059;28;20142;-93
2023/01/22 09:56:51;;;;;;;15.25;8.80;;;;;;;4.68;100.00;98410.13;5097426;28;20040;-91
2023/01/22 09:59:20;;;;;;;16.35;9.07;;;;;;;4.90;98.48;98416.97;5099130;28;20142;-93
2023/01/22 10:01:51;;;;;;;16.25;8.55;;;;;;;5.00;97.72;98420.38;5094653;28;20427;-92
2023/01/22 10:04:25;;;;;;;15.35;8.05;;;;;;;4.87;97.44;98424.88;5095352;28;20043;-91
2023/01/22 10:06:53;;;;;;;11.38;7.15;;;;;;;5.05;99.11;98417.69;5099671;28;20050;-90
2023/01/22 10:09:19;;;;;;;15.20;8.55;;;;;;;5.32;99.06;98419.16;5095496;28;20043;-93
2023/01/22 10:11:50;;;;;;;14.45;8.07;;;;;;;5.40;92.93;98404.13;5094151;28;20501;-92
2023/01/22 10:14:19;;;;;;;12.63;7.53;;;;;;;5.41;94.27;98384.75;5097838;28;20036;-93
2023/01/22 10:16:45;;;;;;;12.15;7.40;;;;;;;5.52;94.97;98385.47;5098103;28;20393;-92
2023/01/22 10:19:20;;;;;;;10.02;6.50;;;;;;;5.41;92.23;98390.03;5098662;28;20057;-92
2023/01/22 10:21:48;;;;;;;11.52;7.10;;;;;;;5.32;93.36;98398.06;5096939;28;20069;-91
2023/01/22 10:24:14;;;;;;;14.82;7.55;;;;;;;5.58;93.88;98396.88;5096765;28;20051;-91
2023/01/22 10:26:45;;;;;;;12.00;7.55;;;;;;;5.59;91.96;98401.22;5092602;28;20420;-91
2023/01/22 10:29:19;;;;;;;16.02;11.02;;;;;;;5.65;93.55;98402.03;5096993;28;20070;-92
2023/01/22 10:31:49;;;;;;;17.95;10.30;;;;;;;5.76;94.63;98391.31;5094780;28;20130;-90
2023/01/22 10:34:26;;;;;;;16.92;9.98;;;;;;;5.86;94.63;98403.50;5100386;28;20472;-91
2023/01/22 10:36:53;;;;;;;13.18;7.55;;;;;;;5.86;90.02;98387.66;5097380;28;20039;-91
2023/01/22 10:39:19;;;;;;;10.68;6.20;;;;;;;5.91;87.18;98406.06;5096285;28;20036;-91
2023/01/22 10:41:46;;;;;;;9.50;5.80;;;;;;;5.91;86.50;98391.09;5098254;28;20047;-92
2023/01/22 10:44:24;;;;;;;10.50;6.25;;;;;;;6.07;87.61;98396.19;5098194;28;20043;-93
2023/01/22 10:46:51;;;;;;;10.63;6.65;;;;;;;6.21;86.58;98401.28;5097925;28;20048;-92
2023/01/22 10:49:20;;;;;;;11.20;6.53;;;;;;;6.24;86.35;98383.59;5099220;28;20043;-93
2023/01/22 10:51:49;;;;;;;;;;;;;;;6.37;85.97;98400.13;5100355;28;20040;-94
2023/01/22 10:54:20;;;;;;;10.48;6.60;;;;;;;6.33;84.26;98399.31;5097653;28;20319;-92
2023/01/22 10:56:46;;;;;;;9.00;6.00;;;;;;;5.99;86.03;98395.47;5096830;28;20048;-92
2023/01/22 10:59:21;;;;;;;13.23;7.22;;;;;;;6.06;84.13;98418.22;5099547;28;20028;-92
2023/01/22 11:01:48;;;;;;;12.05;7.03;;;;;;;5.71;87.31;98420.41;5093172;28;20464;-92
2023/01/22 11:04:22;;;;;;;14.30;6.82;;;;;;;6.04;86.04;98414.72;5092082;28;20066;-92
2023/01/22 11:06:50;;;;;;;11.32;6.68;;;;;;;6.18;85.76;98394.28;5098366;28;20044;-92
2023/01/22 11:09:19;;;;;;;14.97;9.97;;;;;;;6.41;84.06;98390.38;5098297;28;20388;-94
2023/01/22 11:11:47;;;;;;;;;;;;;;;6.57;79.63;98397.13;5094963;28;20404;-95
2023/01/22 11:14:19;;;;;;;9.27;5.72;;;;;;;6.72;79.68;98386.34;5095940;28;19920;-93
2023/01/22 11:16:50;;;;;;;5.93;3.88;;;;;;;6.61;73.09;98371.56;5102704;28;20040;-91
2023/01/22 11:19:19;;;;;;;9.13;5.43;;;;;;;6.82;78.25;98396.72;5095673;28;20127;-93
2023/01/22 11:21:50;;;;;;;7.28;4.55;;;;;;;6.92;74.13;98379.81;5130191;27;20439;-94
2023/01/22 11:24:21;;;;;;;6.65;3.90;;;;;;;7.02;76.23;98370.78;5101660;28;20051;-93
2023/01/22 11:27:09;;;;;;;6.38;4.18;;;;;;;7.10;68.31;98368.00;5097980;28;20127;-93
2023/01/22 11:30:01;;;;;;;5.70;3.10;;;;;;;7.07;68.76;98360.13;5099182;28;20068;-94
2023/01/22 11:32:41;;;;;;;4.72;3.30;;;;;;;6.73;73.71;98337.84;5099764;28;20501;-93
2023/01/22 11:35:18;;;;;;;7.10;4.93;;;;;;;7.10;74.56;98355.66;5105645;28;20046;-92
2023/01/22 11:37:57;;;;;;;8.05;5.07;;;;;;;7.18;73.83;98332.59;5109679;28;20031;-94